Dolan, Kentucky
Current Conditions -  °F | °C
As of 8:53 PM on Friday 28 Nov 2014 (Local Time) from KJKL Reporting Station
Clear Clear  
Wind Chill: 31°   Ceiling: Unl
Heat Index: 31°   Visibility: 10mi
Dew Point: 16°   Wind: 3mph
Humidity: 54%   Direction: 180°S
Pressure: 30.17"   Gusts: NA
Location:  37.2911°N, 83.2003°W
Report Text: KJKL 290153Z AUTO 18003KT 10SM CLR M01/M09 A3017 RMK AO2 SLP228 T10061089
Loading
Personal Weather Stations






























Interactive Weather Map New forecast layout! Learn more

10-Day Weather Forecast

Advertisements
Track Severe Weather on mobile